createdAt,value
2022-10-19T00:00:02.496Z,14.85
2022-10-19T00:02:31.996Z,17.90
2022-10-19T00:04:58.956Z,21.33
2022-10-19T00:07:25.914Z,19.85
2022-10-19T00:09:52.892Z,19.65
2022-10-19T00:12:19.846Z,17.05
2022-10-19T00:14:46.852Z,21.88
2022-10-19T00:17:13.811Z,20.13
2022-10-19T00:19:40.701Z,18.42
2022-10-19T00:22:10.312Z,17.60
2022-10-19T00:24:40.071Z,14.55
2022-10-19T00:27:06.997Z,18.65
2022-10-19T00:29:34.123Z,22.58
2022-10-19T00:32:01.014Z,20.58
2022-10-19T00:34:27.999Z,14.13
2022-10-19T00:36:54.957Z,19.90
2022-10-19T00:39:21.921Z,22.98
2022-10-19T00:41:49.456Z,23.65
2022-10-19T00:44:16.373Z,23.88
2022-10-19T00:46:45.424Z,22.35
2022-10-19T00:49:15.808Z,16.95
2022-10-19T00:51:46.578Z,16.40
2022-10-19T00:54:15.552Z,18.73
2022-10-19T00:56:44.905Z,19.05
2022-10-19T00:59:15.136Z,21.35
2022-10-19T01:01:44.270Z,20.85
2022-10-19T01:04:12.318Z,21.30
2022-10-19T01:06:40.780Z,25.02
2022-10-19T01:09:08.439Z,18.50
2022-10-19T01:11:54.973Z,23.25
2022-10-19T01:14:40.924Z,15.20
2022-10-19T01:17:31.208Z,15.70
2022-10-19T01:20:29.291Z,14.45
2022-10-19T01:23:04.986Z,19.58
2022-10-19T01:25:46.907Z,15.77
2022-10-19T01:28:31.733Z,17.65
2022-10-19T01:31:33.415Z,13.77
2022-10-19T01:34:38.666Z,20.83
2022-10-19T01:37:20.566Z,18.52
2022-10-19T01:39:53.398Z,16.45
2022-10-19T01:42:30.542Z,22.88
2022-10-19T01:45:12.584Z,16.63
2022-10-19T01:47:46.251Z,19.35
2022-10-19T01:50:18.944Z,23.17
2022-10-19T01:52:48.248Z,24.95
2022-10-19T01:55:18.220Z,19.77
2022-10-19T01:57:55.146Z,23.75
2022-10-19T02:00:23.826Z,27.23
2022-10-19T02:02:54.728Z,19.25
2022-10-19T02:05:27.070Z,24.67
2022-10-19T02:07:59.560Z,27.50
2022-10-19T02:10:27.952Z,32.33
2022-10-19T02:12:55.616Z,27.95
2022-10-19T02:15:25.804Z,31.00
2022-10-19T02:17:57.387Z,28.58
2022-10-19T02:20:24.426Z,28.83
2022-10-19T02:22:51.393Z,28.02
2022-10-19T02:25:18.808Z,25.50
2022-10-19T02:27:45.862Z,27.00
2022-10-19T02:30:16.457Z,27.83
2022-10-19T02:32:44.330Z,27.40
2022-10-19T02:35:13.984Z,31.55
2022-10-19T02:37:41.740Z,28.92
2022-10-19T02:40:09.756Z,27.42
2022-10-19T02:42:55.508Z,26.73
2022-10-19T02:45:24.282Z,27.38
2022-10-19T02:48:04.892Z,33.08
2022-10-19T02:50:32.241Z,32.78
2022-10-19T02:52:59.658Z,27.38
2022-10-19T02:55:27.007Z,31.58
2022-10-19T02:57:54.740Z,25.83
2022-10-19T03:00:21.738Z,30.02
2022-10-19T03:02:48.667Z,27.23
2022-10-19T03:05:15.726Z,36.15
2022-10-19T03:07:43.393Z,31.08
2022-10-19T03:10:10.361Z,34.33
2022-10-19T03:12:37.248Z,36.50
2022-10-19T03:15:05.043Z,33.20
2022-10-19T03:17:32.378Z,34.97
2022-10-19T03:19:59.590Z,33.00
2022-10-19T03:22:26.530Z,39.88
2022-10-19T03:24:53.567Z,33.03
2022-10-19T03:27:20.450Z,33.88
2022-10-19T03:29:47.467Z,27.13
2022-10-19T03:32:14.393Z,29.77
2022-10-19T03:34:41.329Z,43.55
2022-10-19T03:37:08.709Z,34.70
2022-10-19T03:39:35.925Z,38.92
2022-10-19T03:42:02.810Z,34.38
2022-10-19T03:44:29.824Z,35.35
2022-10-19T03:46:56.832Z,31.23
2022-10-19T03:49:23.832Z,31.73
2022-10-19T03:51:50.760Z,38.25
2022-10-19T03:54:17.998Z,35.10
2022-10-19T03:56:45.116Z,42.90
2022-10-19T03:59:14.914Z,35.80
2022-10-19T04:01:44.888Z,42.17
2022-10-19T04:04:17.576Z,38.50
2022-10-19T04:06:47.380Z,39.35
2022-10-19T04:09:17.664Z,34.30
2022-10-19T04:11:44.825Z,33.97
2022-10-19T04:14:26.666Z,38.28
2022-10-19T04:17:03.088Z,39.05
2022-10-19T04:19:30.691Z,39.72
2022-10-19T04:21:57.850Z,38.45
2022-10-19T04:24:24.812Z,38.75
2022-10-19T04:26:54.101Z,37.00
2022-10-19T04:29:26.495Z,39.30
2022-10-19T04:31:56.684Z,36.00
2022-10-19T04:34:24.209Z,36.30
2022-10-19T04:36:51.155Z,45.35
2022-10-19T04:39:18.144Z,45.20
2022-10-19T04:41:45.084Z,48.63
2022-10-19T04:44:12.072Z,44.88
2022-10-19T04:46:39.147Z,43.30
2022-10-19T04:49:06.960Z,42.67
2022-10-19T04:51:34.729Z,38.63
2022-10-19T04:54:03.718Z,46.88
2022-10-19T04:56:32.371Z,43.28
2022-10-19T04:59:00.340Z,45.53
2022-10-19T05:01:29.602Z,41.63
2022-10-19T05:04:01.171Z,44.83
2022-10-19T05:06:29.037Z,46.35
2022-10-19T05:08:56.397Z,50.15
2022-10-19T05:11:23.479Z,51.75
2022-10-19T05:13:50.795Z,44.63
2022-10-19T05:16:20.513Z,55.78
2022-10-19T05:18:52.586Z,56.67
2022-10-19T05:21:20.939Z,50.45
2022-10-19T05:23:50.738Z,54.97
2022-10-19T05:26:19.549Z,51.60
2022-10-19T05:28:51.409Z,47.70
2022-10-19T05:31:20.247Z,54.08
2022-10-19T05:33:47.528Z,47.17
2022-10-19T05:36:27.106Z,47.50
2022-10-19T05:38:58.251Z,45.00
2022-10-19T05:41:26.729Z,46.22
2022-10-19T05:43:57.987Z,43.60
2022-10-19T05:46:26.224Z,40.33
2022-10-19T05:48:53.296Z,44.97
2022-10-19T05:51:21.629Z,44.35
2022-10-19T05:53:48.631Z,47.67
2022-10-19T05:56:18.457Z,45.35
2022-10-19T05:58:45.601Z,46.40
2022-10-19T06:01:14.017Z,47.58
2022-10-19T06:03:41.677Z,47.25
2022-10-19T06:06:10.033Z,43.92
2022-10-19T06:08:38.459Z,43.63
2022-10-19T06:11:16.286Z,47.10
2022-10-19T06:13:45.387Z,46.22
2022-10-19T06:16:14.607Z,57.22
2022-10-19T06:18:42.905Z,41.40
2022-10-19T06:21:15.749Z,47.92
2022-10-19T06:26:15.315Z,43.45
2022-10-19T06:28:43.633Z,50.00
2022-10-19T06:31:12.537Z,48.95
2022-10-19T06:33:40.975Z,43.72
2022-10-19T06:36:08.899Z,41.13
2022-10-19T06:38:35.851Z,49.20
2022-10-19T06:41:03.404Z,49.35
2022-10-19T06:43:30.496Z,48.97
2022-10-19T06:45:57.889Z,48.03
2022-10-19T06:48:24.925Z,44.53
2022-10-19T06:50:59.244Z,41.30
2022-10-19T06:53:27.219Z,48.83
2022-10-19T06:55:54.142Z,48.55
2022-10-19T06:58:21.129Z,43.10
2022-10-19T07:00:58.046Z,47.17
2022-10-19T07:03:29.804Z,51.22
2022-10-19T07:05:59.403Z,49.40
2022-10-19T07:08:28.143Z,52.40
2022-10-19T07:10:57.689Z,46.28
2022-10-19T07:13:25.430Z,51.00
2022-10-19T07:16:06.707Z,51.35
2022-10-19T07:18:38.264Z,56.03
2022-10-19T07:21:08.415Z,57.55
2022-10-19T07:23:37.087Z,56.45
2022-10-19T07:26:21.563Z,46.03
2022-10-19T07:28:49.443Z,51.88
2022-10-19T07:31:20.203Z,52.42
2022-10-19T07:33:51.359Z,53.83
2022-10-19T07:36:18.306Z,47.10
2022-10-19T07:38:45.203Z,51.38
2022-10-19T07:41:18.440Z,48.90
2022-10-19T07:43:47.176Z,48.10
2022-10-19T07:46:20.232Z,52.70
2022-10-19T07:48:47.573Z,54.63
2022-10-19T07:51:16.276Z,57.00
2022-10-19T07:53:43.601Z,56.15
2022-10-19T07:56:16.604Z,49.50
2022-10-19T07:58:44.430Z,56.37
2022-10-19T08:01:14.929Z,63.47
2022-10-19T08:04:42.831Z,55.58
2022-10-19T08:06:29.979Z,63.33
2022-10-19T08:08:57.053Z,56.83
2022-10-19T08:11:28.419Z,60.38
2022-10-19T08:13:58.634Z,57.83
2022-10-19T08:16:29.160Z,54.88
2022-10-19T08:18:58.628Z,56.28
2022-10-19T08:21:26.969Z,58.70
2022-10-19T08:23:53.973Z,63.88
2022-10-19T08:26:21.275Z,62.03
2022-10-19T08:28:48.386Z,64.63
2022-10-19T08:31:22.991Z,64.07
2022-10-19T08:33:51.034Z,62.17
2022-10-19T08:36:19.743Z,66.50
2022-10-19T08:38:48.540Z,61.83
2022-10-19T08:41:52.256Z,63.42
2022-10-19T08:44:49.850Z,63.45
2022-10-19T08:47:28.537Z,71.30
2022-10-19T08:49:57.122Z,74.22
2022-10-19T08:52:35.928Z,62.17
2022-10-19T08:55:13.911Z,68.75
2022-10-19T08:57:52.426Z,67.68
2022-10-19T09:00:26.582Z,65.90
2022-10-19T09:03:37.788Z,63.65
2022-10-19T09:06:22.608Z,70.65
2022-10-19T09:08:54.786Z,73.85
2022-10-19T09:11:45.332Z,71.32
2022-10-19T09:14:25.841Z,71.78
2022-10-19T09:16:54.617Z,73.05
2022-10-19T09:19:29.402Z,67.68
2022-10-19T09:22:18.336Z,73.20
2022-10-19T09:24:53.844Z,71.03
2022-10-19T09:27:33.454Z,72.78
2022-10-19T09:30:06.715Z,72.97
2022-10-19T09:32:39.592Z,71.40
2022-10-19T09:35:22.225Z,67.82
2022-10-19T09:37:51.233Z,66.85
2022-10-19T09:40:27.616Z,65.95
2022-10-19T09:42:58.551Z,69.53
2022-10-19T09:46:18.590Z,62.88
2022-10-19T09:48:52.036Z,67.30
2022-10-19T09:51:20.513Z,64.95
2022-10-19T09:53:47.353Z,66.85
2022-10-19T09:56:23.648Z,64.28
2022-10-19T09:58:53.599Z,65.22
2022-10-19T10:01:41.681Z,59.95
2022-10-19T10:04:19.065Z,60.67
2022-10-19T10:06:48.489Z,53.20
2022-10-19T10:09:26.215Z,53.55
2022-10-19T10:11:57.210Z,54.47
2022-10-19T10:14:51.938Z,59.42
2022-10-19T10:17:22.069Z,55.70
2022-10-19T10:19:58.174Z,58.50
2022-10-19T10:22:28.288Z,62.15
2022-10-19T10:24:56.710Z,58.97
2022-10-19T10:27:36.523Z,55.53
2022-10-19T10:30:09.558Z,51.08
2022-10-19T10:32:40.671Z,55.83
2022-10-19T10:35:18.572Z,51.17
2022-10-19T10:37:47.374Z,46.35
2022-10-19T10:40:25.109Z,51.03
2022-10-19T10:42:54.999Z,52.90
2022-10-19T10:45:41.705Z,49.70
2022-10-19T10:48:36.004Z,50.05
2022-10-19T10:51:07.236Z,48.03
2022-10-19T10:53:38.157Z,52.80
2022-10-19T10:56:19.220Z,49.03
2022-10-19T10:59:03.024Z,46.80
2022-10-19T11:02:10.524Z,47.08
2022-10-19T11:04:41.576Z,46.58
2022-10-19T11:07:24.555Z,46.30
2022-10-19T11:09:56.809Z,49.58
2022-10-19T11:12:53.887Z,47.78
2022-10-19T11:15:34.774Z,44.53
2022-10-19T11:18:20.430Z,47.80
2022-10-19T11:20:59.581Z,45.55
2022-10-19T11:23:36.978Z,42.95
2022-10-19T11:26:15.429Z,49.28
2022-10-19T11:28:54.343Z,44.90
2022-10-19T11:31:32.436Z,48.17
2022-10-19T11:34:26.391Z,41.50
2022-10-19T11:37:02.837Z,48.65
2022-10-19T11:40:11.528Z,42.30
2022-10-19T11:42:57.146Z,41.53
2022-10-19T11:45:59.859Z,38.45
2022-10-19T11:48:29.863Z,38.63
2022-10-19T11:51:21.401Z,36.13
2022-10-19T11:53:56.684Z,42.63
2022-10-19T11:56:44.698Z,36.92
2022-10-19T11:59:48.524Z,42.17
2022-10-19T12:02:48.552Z,34.28
2022-10-19T12:05:46.731Z,32.40
2022-10-19T12:08:26.745Z,35.35
2022-10-19T12:11:00.287Z,34.67
2022-10-19T12:13:39.684Z,30.75
2022-10-19T12:16:08.374Z,40.05
2022-10-19T12:18:55.610Z,29.75
2022-10-19T12:21:31.167Z,27.55
2022-10-19T12:24:00.572Z,29.38
2022-10-19T12:26:35.497Z,30.00
2022-10-19T12:29:06.994Z,26.98
2022-10-19T12:31:35.805Z,28.70
2022-10-19T12:34:25.818Z,25.45
2022-10-19T12:36:55.555Z,27.17
2022-10-19T12:39:42.279Z,24.73
2022-10-19T12:42:35.912Z,24.38
2022-10-19T12:45:09.319Z,23.67
2022-10-19T12:47:36.708Z,24.45
2022-10-19T12:50:04.241Z,25.77
2022-10-19T12:52:48.244Z,26.95
2022-10-19T12:55:15.157Z,30.65
2022-10-19T12:57:48.384Z,22.80
2022-10-19T13:00:27.032Z,22.60
2022-10-19T13:03:22.143Z,18.17
2022-10-19T13:06:30.251Z,22.20
2022-10-19T13:09:06.671Z,20.02
2022-10-19T13:14:45.385Z,20.63
2022-10-19T13:17:36.139Z,20.70
2022-10-19T13:20:15.401Z,19.58
2022-10-19T13:22:45.085Z,17.15
2022-10-19T13:25:24.051Z,18.08
2022-10-19T13:28:15.142Z,15.55
2022-10-19T13:30:42.317Z,18.58
2022-10-19T13:33:31.501Z,20.73
2022-10-19T13:36:02.472Z,19.95
2022-10-19T13:38:44.494Z,15.25
2022-10-19T13:41:11.427Z,16.48
2022-10-19T13:43:44.134Z,18.92
2022-10-19T13:46:26.437Z,16.77
2022-10-19T13:49:15.282Z,16.75
2022-10-19T13:51:55.546Z,21.15
2022-10-19T13:54:37.812Z,15.35
2022-10-19T13:57:25.872Z,16.65
2022-10-19T14:00:02.119Z,15.50
2022-10-19T14:03:11.689Z,16.13
2022-10-19T14:06:13.330Z,17.67
2022-10-19T14:08:46.893Z,17.75
2022-10-19T14:11:20.535Z,15.05
2022-10-19T14:14:27.227Z,13.95
2022-10-19T14:17:04.184Z,14.98
2022-10-19T14:19:42.175Z,15.70
2022-10-19T14:22:38.376Z,16.02
2022-10-19T14:25:18.523Z,20.55
2022-10-19T14:28:00.871Z,17.17
2022-10-19T14:30:33.811Z,14.45
2022-10-19T14:33:06.817Z,13.90
2022-10-19T14:35:37.523Z,17.30
2022-10-19T14:38:15.754Z,12.18
2022-10-19T14:40:42.891Z,15.93
2022-10-19T14:43:27.581Z,16.58
2022-10-19T14:46:06.773Z,13.20
2022-10-19T14:48:35.728Z,13.98
2022-10-19T14:51:10.058Z,12.88
2022-10-19T14:53:40.218Z,13.95
2022-10-19T14:56:17.839Z,13.27
2022-10-19T14:58:51.786Z,16.65
2022-10-19T15:01:20.289Z,11.73
2022-10-19T15:03:48.749Z,12.05
2022-10-19T15:06:28.331Z,14.80
2022-10-19T15:09:05.402Z,16.83
2022-10-19T15:11:44.503Z,16.02
2022-10-19T15:14:24.524Z,12.60
2022-10-19T15:16:58.435Z,13.10
2022-10-19T15:19:30.197Z,15.15
2022-10-19T15:22:32.369Z,14.43
2022-10-19T15:25:06.952Z,12.20
2022-10-19T15:27:47.221Z,12.30
2022-10-19T15:30:26.300Z,15.55
2022-10-19T15:33:02.131Z,10.43
2022-10-19T15:35:32.204Z,16.85
2022-10-19T15:38:22.395Z,14.77
2022-10-19T15:40:55.927Z,11.13
2022-10-19T15:43:33.084Z,13.45
2022-10-19T15:46:18.880Z,13.10
2022-10-19T15:48:51.183Z,15.63
2022-10-19T15:51:23.731Z,10.55
2022-10-19T15:54:00.965Z,15.23
2022-10-19T15:56:30.042Z,12.07
2022-10-19T15:58:58.955Z,13.07
2022-10-19T16:01:28.593Z,12.07
2022-10-19T16:03:55.960Z,15.32
2022-10-19T16:06:26.402Z,17.98
2022-10-19T16:08:54.190Z,13.85
2022-10-19T16:11:23.140Z,14.60
2022-10-19T16:13:50.399Z,12.93
2022-10-19T16:16:28.643Z,14.07
2022-10-19T16:18:56.083Z,12.82
2022-10-19T16:21:32.530Z,10.73
2022-10-19T16:23:59.560Z,12.45
2022-10-19T16:26:27.331Z,12.90
2022-10-19T16:28:55.734Z,11.18
2022-10-19T16:31:24.335Z,12.55
2022-10-19T16:33:51.643Z,12.98
2022-10-19T16:36:20.378Z,11.18
2022-10-19T16:38:48.145Z,11.30
2022-10-19T16:41:15.510Z,14.45
2022-10-19T16:43:42.606Z,11.73
2022-10-19T16:46:09.689Z,11.82
2022-10-19T16:48:37.015Z,10.73
2022-10-19T16:51:07.051Z,16.33
2022-10-19T16:53:35.207Z,12.43
2022-10-19T16:56:07.417Z,11.80
2022-10-19T16:58:35.130Z,10.52
2022-10-19T17:01:10.657Z,12.82
2022-10-19T17:03:38.243Z,10.93
2022-10-19T17:06:06.649Z,11.88
2022-10-19T17:09:14.303Z,13.98
2022-10-19T17:11:36.714Z,11.30
2022-10-19T17:14:06.864Z,13.75
2022-10-19T17:16:35.479Z,14.43
2022-10-19T17:19:03.945Z,15.10
2022-10-19T17:21:33.592Z,13.57
2022-10-19T17:24:02.906Z,11.80
2022-10-19T17:26:38.540Z,14.45
2022-10-19T17:29:06.639Z,11.40
2022-10-19T17:31:34.531Z,13.07
2022-10-19T17:34:02.064Z,15.40
2022-10-19T17:36:32.034Z,12.57
2022-10-19T17:39:02.347Z,12.02
2022-10-19T17:41:29.690Z,10.15
2022-10-19T17:43:57.291Z,17.35
2022-10-19T17:46:30.127Z,15.48
2022-10-19T17:48:57.877Z,12.40
2022-10-19T17:51:29.678Z,15.10
2022-10-19T17:53:59.590Z,13.35
2022-10-19T17:56:27.866Z,13.65
2022-10-19T17:58:56.392Z,11.45
2022-10-19T18:01:24.430Z,12.43
2022-10-19T18:03:51.333Z,11.52
2022-10-19T18:06:22.130Z,14.20
2022-10-19T18:08:54.165Z,14.02
2022-10-19T18:11:26.868Z,14.10
2022-10-19T18:13:56.988Z,11.80
2022-10-19T18:16:27.466Z,12.00
2022-10-19T18:18:57.084Z,14.73
2022-10-19T18:21:31.086Z,13.25
2022-10-19T18:24:00.583Z,14.48
2022-10-19T18:26:30.351Z,15.05
2022-10-19T18:28:58.270Z,12.63
2022-10-19T18:31:29.499Z,12.05
2022-10-19T18:34:04.982Z,13.48
2022-10-19T18:36:32.946Z,12.93
2022-10-19T18:39:02.258Z,17.67
2022-10-19T18:41:30.236Z,17.63
2022-10-19T18:44:03.222Z,19.42
2022-10-19T18:46:30.597Z,13.97
2022-10-19T18:48:57.507Z,16.30
2022-10-19T18:51:24.525Z,12.65
2022-10-19T18:53:51.563Z,12.30
2022-10-19T18:56:20.206Z,13.00
2022-10-19T18:58:47.501Z,12.52
2022-10-19T19:01:24.082Z,12.38
2022-10-19T19:03:52.840Z,13.32
2022-10-19T19:06:24.735Z,13.52
2022-10-19T19:08:54.797Z,15.13
2022-10-19T19:11:26.745Z,11.73
2022-10-19T19:13:56.524Z,16.83
2022-10-19T19:16:24.387Z,14.18
2022-10-19T19:18:51.621Z,14.00
2022-10-19T19:21:21.721Z,13.55
2022-10-19T19:23:49.923Z,15.02
2022-10-19T19:26:17.870Z,13.77
2022-10-19T19:28:47.629Z,17.25
2022-10-19T19:31:18.629Z,13.38
2022-10-19T19:33:47.081Z,11.45
2022-10-19T19:36:17.138Z,13.40
2022-10-19T19:38:44.834Z,14.88
2022-10-19T19:41:14.139Z,12.55
2022-10-19T19:43:42.675Z,12.80
2022-10-19T19:46:15.297Z,14.70
2022-10-19T19:48:44.160Z,17.15
2022-10-19T19:51:14.190Z,13.35
2022-10-19T19:53:41.240Z,13.93
2022-10-19T19:56:09.969Z,13.57
2022-10-19T19:58:37.015Z,11.02
2022-10-19T20:01:18.394Z,12.85
2022-10-19T20:03:46.397Z,14.57
2022-10-19T20:06:15.431Z,16.20
2022-10-19T20:08:42.875Z,11.57
2022-10-19T20:11:13.814Z,13.05
2022-10-19T20:13:40.810Z,16.38
2022-10-19T20:16:13.265Z,14.52
2022-10-19T20:18:44.040Z,16.40
2022-10-19T20:21:11.214Z,15.13
2022-10-19T20:23:38.692Z,16.58
2022-10-19T20:26:05.970Z,14.70
2022-10-19T20:28:33.340Z,13.57
2022-10-19T20:31:05.491Z,14.13
2022-10-19T20:33:34.885Z,15.10
2022-10-19T20:36:22.925Z,13.55
2022-10-19T20:38:57.887Z,14.07
2022-10-19T20:41:27.979Z,15.70
2022-10-19T20:43:56.027Z,11.38
2022-10-19T20:46:26.094Z,12.82
2022-10-19T20:48:54.824Z,12.80
2022-10-19T20:51:30.901Z,14.80
2022-10-19T20:54:01.403Z,10.90
2022-10-19T20:56:33.007Z,10.68
2022-10-19T21:01:37.086Z,11.00
2022-10-19T21:04:05.983Z,13.80
2022-10-19T21:06:35.067Z,14.60
2022-10-19T21:09:01.995Z,12.35
2022-10-19T21:11:32.031Z,16.17
2022-10-19T21:14:05.015Z,13.40
2022-10-19T21:16:35.447Z,10.93
2022-10-19T21:19:04.755Z,12.10
2022-10-19T21:21:34.071Z,12.30
2022-10-19T21:24:10.814Z,11.18
2022-10-19T21:26:38.388Z,12.38
2022-10-19T21:29:09.403Z,16.13
2022-10-19T21:31:38.398Z,14.80
2022-10-19T21:34:07.531Z,13.50
2022-10-19T21:36:34.550Z,14.48
2022-10-19T21:39:02.295Z,12.55
2022-10-19T21:41:29.364Z,12.80
2022-10-19T21:43:56.548Z,13.00
2022-10-19T21:46:24.582Z,13.10
2022-10-19T21:48:52.195Z,12.18
2022-10-19T21:51:22.614Z,12.48
2022-10-19T21:53:50.327Z,15.07
2022-10-19T21:56:17.783Z,15.50
2022-10-19T21:58:53.474Z,14.20
2022-10-19T22:01:23.882Z,14.13
2022-10-19T22:03:58.248Z,11.65
2022-10-19T22:06:27.561Z,14.73
2022-10-19T22:08:55.391Z,14.68
2022-10-19T22:11:23.617Z,13.43
2022-10-19T22:13:54.839Z,16.75
2022-10-19T22:16:22.902Z,16.55
2022-10-19T22:18:50.384Z,14.77
2022-10-19T22:21:21.761Z,18.33
2022-10-19T22:23:53.482Z,13.35
2022-10-19T22:26:26.702Z,18.15
2022-10-19T22:28:56.587Z,15.30
2022-10-19T22:31:24.160Z,17.42
2022-10-19T22:33:51.119Z,15.82
2022-10-19T22:36:18.485Z,13.23
2022-10-19T22:38:45.794Z,20.63
2022-10-19T22:41:13.254Z,16.15
2022-10-19T22:43:40.454Z,15.32
2022-10-19T22:46:07.532Z,13.77
2022-10-19T22:48:34.587Z,14.68
2022-10-19T22:51:01.564Z,15.93
2022-10-19T22:53:28.579Z,17.17
2022-10-19T22:55:55.526Z,15.52
2022-10-19T22:58:22.544Z,16.48
2022-10-19T23:01:10.065Z,16.63
2022-10-19T23:03:39.432Z,22.25
2022-10-19T23:06:08.015Z,17.27
2022-10-19T23:08:35.313Z,17.05
2022-10-19T23:11:02.398Z,18.08
2022-10-19T23:13:29.536Z,17.40
2022-10-19T23:15:56.486Z,21.10
2022-10-19T23:18:23.487Z,18.58
2022-10-19T23:21:01.776Z,18.98
2022-10-19T23:23:30.424Z,18.38
2022-10-19T23:26:08.317Z,17.40
2022-10-19T23:28:37.147Z,18.55
2022-10-19T23:31:06.725Z,21.13
2022-10-19T23:33:34.235Z,24.75
2022-10-19T23:36:04.052Z,23.42
2022-10-19T23:38:31.036Z,22.25
2022-10-19T23:40:57.982Z,21.42
2022-10-19T23:43:25.017Z,18.90
2022-10-19T23:45:51.972Z,20.38
2022-10-19T23:48:19.116Z,18.38
2022-10-19T23:50:46.075Z,20.02
2022-10-19T23:53:13.245Z,18.88
2022-10-19T23:55:40.144Z,20.58
2022-10-19T23:58:07.244Z,22.83
